createdAt,value
2023-03-29T00:00:18.748Z,993.23
2023-03-29T00:01:35.725Z,993.17
2023-03-29T00:02:18.700Z,993.19
2023-03-29T00:03:18.924Z,993.15
2023-03-29T00:04:18.717Z,993.17
2023-03-29T00:05:18.676Z,993.13
2023-03-29T00:06:18.634Z,993.12
2023-03-29T00:07:18.633Z,993.07
2023-03-29T00:08:18.617Z,993.10
2023-03-29T00:09:18.613Z,993.10
2023-03-29T00:10:18.622Z,993.12
2023-03-29T00:11:18.585Z,993.14
2023-03-29T00:12:18.615Z,993.10
2023-03-29T00:13:18.587Z,993.07
2023-03-29T00:14:18.602Z,993.08
2023-03-29T00:15:18.557Z,993.06
2023-03-29T00:16:18.587Z,993.08
2023-03-29T00:17:18.524Z,993.02
2023-03-29T00:18:18.530Z,993.00
2023-03-29T00:19:18.528Z,993.06
2023-03-29T00:20:18.514Z,992.96
2023-03-29T00:21:18.555Z,992.99
2023-03-29T00:22:18.478Z,992.99
2023-03-29T00:23:18.470Z,993.00
2023-03-29T00:24:18.496Z,992.95
2023-03-29T00:25:18.455Z,992.96
2023-03-29T00:26:18.474Z,992.92
2023-03-29T00:27:18.521Z,992.88
2023-03-29T00:28:18.441Z,992.87
2023-03-29T00:29:18.432Z,992.95
2023-03-29T00:30:18.435Z,992.88
2023-03-29T00:31:18.438Z,992.87
2023-03-29T00:32:18.420Z,992.85
2023-03-29T00:33:18.404Z,992.83
2023-03-29T00:34:18.402Z,992.88
2023-03-29T00:35:18.364Z,992.88
2023-03-29T00:36:18.366Z,992.79
2023-03-29T00:37:18.396Z,992.84
2023-03-29T00:38:18.387Z,992.82
2023-03-29T00:39:18.336Z,992.77
2023-03-29T00:40:18.321Z,992.82
2023-03-29T00:41:18.299Z,992.80
2023-03-29T00:42:18.320Z,992.78
2023-03-29T00:43:18.312Z,992.74
2023-03-29T00:44:18.261Z,992.71
2023-03-29T00:45:18.261Z,992.71
2023-03-29T00:46:18.325Z,992.72
2023-03-29T00:47:18.262Z,992.74
2023-03-29T00:48:18.240Z,992.67
2023-03-29T00:49:18.259Z,992.61
2023-03-29T00:50:18.203Z,992.57
2023-03-29T00:51:18.218Z,992.54
2023-03-29T00:52:18.201Z,992.52
2023-03-29T00:53:18.241Z,992.60
2023-03-29T00:54:18.189Z,992.55
2023-03-29T00:55:18.177Z,992.55
2023-03-29T00:56:18.149Z,992.52
2023-03-29T00:57:18.167Z,992.54
2023-03-29T00:58:18.158Z,992.51
2023-03-29T00:59:18.136Z,992.47
2023-03-29T01:00:18.148Z,992.49
2023-03-29T01:01:18.106Z,992.47
2023-03-29T01:02:18.137Z,992.49
2023-03-29T01:03:18.146Z,992.43
2023-03-29T01:04:18.121Z,992.42
2023-03-29T01:05:18.079Z,992.38
2023-03-29T01:06:18.087Z,992.40
2023-03-29T01:07:18.145Z,992.33
2023-03-29T01:08:18.041Z,992.32
2023-03-29T01:09:18.060Z,992.36
2023-03-29T01:10:18.049Z,992.25
2023-03-29T01:11:18.064Z,992.26
2023-03-29T01:12:18.016Z,992.22
2023-03-29T01:13:17.988Z,992.20
2023-03-29T01:14:17.962Z,992.24
2023-03-29T01:15:17.953Z,992.18
2023-03-29T01:16:18.073Z,992.16
2023-03-29T01:17:17.947Z,992.21
2023-03-29T01:18:17.926Z,992.22
2023-03-29T01:19:17.949Z,992.16
2023-03-29T01:20:17.918Z,992.12
2023-03-29T01:21:17.937Z,992.19
2023-03-29T01:22:17.901Z,992.13
2023-03-29T01:23:17.963Z,992.18
2023-03-29T01:24:17.912Z,992.09
2023-03-29T01:25:17.878Z,992.05
2023-03-29T01:26:17.887Z,992.10
2023-03-29T01:27:17.879Z,992.06
2023-03-29T01:28:17.872Z,992.07
2023-03-29T01:29:17.836Z,992.08
2023-03-29T01:30:17.849Z,992.06
2023-03-29T01:31:17.821Z,992.05
2023-03-29T01:32:17.857Z,992.03
2023-03-29T01:33:17.840Z,991.96
2023-03-29T01:34:17.802Z,991.98
2023-03-29T01:35:17.779Z,991.96
2023-03-29T01:36:17.880Z,991.93
2023-03-29T01:37:17.814Z,991.95
2023-03-29T01:38:17.740Z,991.85
2023-03-29T01:39:17.721Z,991.86
2023-03-29T01:40:17.768Z,991.79
2023-03-29T01:41:17.729Z,991.77
2023-03-29T01:42:17.704Z,991.71
2023-03-29T01:43:17.704Z,991.79
2023-03-29T01:44:17.697Z,991.76
2023-03-29T01:45:17.687Z,991.70
2023-03-29T01:46:17.770Z,991.62
2023-03-29T01:47:17.644Z,991.75
2023-03-29T01:48:17.672Z,991.72
2023-03-29T01:49:17.638Z,991.66
2023-03-29T01:50:17.697Z,991.72
2023-03-29T01:51:17.662Z,991.76
2023-03-29T01:52:17.673Z,991.67
2023-03-29T01:53:17.593Z,991.70
2023-03-29T01:54:17.617Z,991.74
2023-03-29T01:55:17.587Z,991.68
2023-03-29T01:56:17.603Z,991.62
2023-03-29T01:57:17.622Z,991.64
2023-03-29T01:58:17.535Z,991.62
2023-03-29T01:59:17.552Z,991.59
2023-03-29T02:00:17.583Z,991.60
2023-03-29T02:01:17.648Z,991.59
2023-03-29T02:02:17.581Z,991.51
2023-03-29T02:03:17.688Z,991.57
2023-03-29T02:04:17.550Z,991.59
2023-03-29T02:05:17.479Z,991.54
2023-03-29T02:06:17.479Z,991.56
2023-03-29T02:07:17.468Z,991.51
2023-03-29T02:08:17.491Z,991.52
2023-03-29T02:09:17.478Z,991.47
2023-03-29T02:10:49.353Z,991.48
2023-03-29T02:11:17.435Z,991.49
2023-03-29T02:12:17.422Z,991.55
2023-03-29T02:13:17.425Z,991.51
2023-03-29T02:14:17.408Z,991.50
2023-03-29T02:15:17.393Z,991.57
2023-03-29T02:16:17.414Z,991.58
2023-03-29T02:17:17.389Z,991.54
2023-03-29T02:18:17.376Z,991.56
2023-03-29T02:19:17.388Z,991.47
2023-03-29T02:20:17.415Z,991.49
2023-03-29T02:21:17.461Z,991.48
2023-03-29T02:22:17.361Z,991.51
2023-03-29T02:23:17.298Z,991.50
2023-03-29T02:24:17.309Z,991.49
2023-03-29T02:25:17.302Z,991.46
2023-03-29T02:26:17.339Z,991.46
2023-03-29T02:27:17.303Z,991.41
2023-03-29T02:28:17.291Z,991.38
2023-03-29T02:29:17.284Z,991.38
2023-03-29T02:30:17.236Z,991.35
2023-03-29T02:31:17.252Z,991.38
2023-03-29T02:32:17.238Z,991.32
2023-03-29T02:33:17.243Z,991.30
2023-03-29T02:34:17.223Z,991.33
2023-03-29T02:35:17.225Z,991.31
2023-03-29T02:36:17.219Z,991.24
2023-03-29T02:37:17.177Z,991.26
2023-03-29T02:38:17.156Z,991.25
2023-03-29T02:39:17.156Z,991.27
2023-03-29T02:40:17.173Z,991.25
2023-03-29T02:41:17.117Z,991.19
2023-03-29T02:42:17.205Z,991.23
2023-03-29T02:43:17.129Z,991.20
2023-03-29T02:44:17.141Z,991.23
2023-03-29T02:45:17.198Z,991.22
2023-03-29T02:46:17.229Z,991.21
2023-03-29T02:47:17.172Z,991.18
2023-03-29T02:48:17.236Z,991.21
2023-03-29T02:49:18.086Z,991.14
2023-03-29T02:50:17.137Z,991.21
2023-03-29T02:51:19.779Z,991.20
2023-03-29T02:52:18.085Z,991.20
2023-03-29T02:53:17.029Z,991.17
2023-03-29T02:54:17.032Z,991.24
2023-03-29T02:55:17.107Z,991.16
2023-03-29T02:56:16.976Z,991.19
2023-03-29T02:57:16.997Z,991.13
2023-03-29T02:58:16.975Z,991.10
2023-03-29T02:59:16.977Z,991.08
2023-03-29T03:00:16.974Z,991.03
2023-03-29T03:01:16.945Z,991.03
2023-03-29T03:02:16.982Z,991.00
2023-03-29T03:03:17.066Z,991.01
2023-03-29T03:04:16.887Z,991.02
2023-03-29T03:05:16.935Z,991.01
2023-03-29T03:06:16.914Z,990.95
2023-03-29T03:07:16.887Z,990.93
2023-03-29T03:08:16.881Z,990.92
2023-03-29T03:09:16.942Z,990.97
2023-03-29T03:10:16.846Z,990.95
2023-03-29T03:11:16.831Z,990.91
2023-03-29T03:12:16.912Z,990.90
2023-03-29T03:13:16.818Z,990.89
2023-03-29T03:14:16.835Z,990.86
2023-03-29T03:15:16.802Z,990.84
2023-03-29T03:16:16.831Z,990.85
2023-03-29T03:17:16.791Z,990.82
2023-03-29T03:18:16.867Z,990.87
2023-03-29T03:19:16.819Z,990.83
2023-03-29T03:20:16.790Z,990.87
2023-03-29T03:21:16.726Z,990.84
2023-03-29T03:22:16.729Z,990.87
2023-03-29T03:23:16.739Z,990.89
2023-03-29T03:24:16.703Z,990.81
2023-03-29T03:25:16.743Z,990.86
2023-03-29T03:26:16.740Z,990.91
2023-03-29T03:27:16.716Z,990.80
2023-03-29T03:28:16.672Z,990.88
2023-03-29T03:29:16.697Z,990.86
2023-03-29T03:30:16.663Z,990.82
2023-03-29T03:31:16.712Z,990.79
2023-03-29T03:32:16.663Z,990.82
2023-03-29T03:33:16.606Z,990.80
2023-03-29T03:34:16.624Z,990.82
2023-03-29T03:35:16.608Z,990.82
2023-03-29T03:36:16.595Z,990.78
2023-03-29T03:37:16.620Z,990.80
2023-03-29T03:38:16.596Z,990.77
2023-03-29T03:39:16.577Z,990.78
2023-03-29T03:40:16.571Z,990.79
2023-03-29T03:41:16.562Z,990.76
2023-03-29T03:42:17.567Z,990.81
2023-03-29T03:43:16.516Z,990.76
2023-03-29T03:44:16.546Z,990.76
2023-03-29T03:45:16.566Z,990.71
2023-03-29T03:46:16.575Z,990.70
2023-03-29T03:47:16.521Z,990.65
2023-03-29T03:48:16.515Z,990.60
2023-03-29T03:49:16.497Z,990.62
2023-03-29T03:50:16.485Z,990.65
2023-03-29T03:51:16.483Z,990.61
2023-03-29T03:52:16.445Z,990.62
2023-03-29T03:53:16.472Z,990.64
2023-03-29T03:54:16.433Z,990.69
2023-03-29T03:55:17.424Z,990.59
2023-03-29T03:56:16.429Z,990.63
2023-03-29T03:57:16.423Z,990.65
2023-03-29T03:58:16.472Z,990.66
2023-03-29T03:59:16.431Z,990.71
2023-03-29T04:00:16.389Z,990.65
2023-03-29T04:01:16.355Z,990.68
2023-03-29T04:02:16.438Z,990.75
2023-03-29T04:03:16.473Z,990.79
2023-03-29T04:04:16.430Z,990.72
2023-03-29T04:05:16.398Z,990.81
2023-03-29T04:06:16.350Z,990.71
2023-03-29T04:07:16.297Z,990.75
2023-03-29T04:08:16.314Z,990.77
2023-03-29T04:09:16.278Z,990.80
2023-03-29T04:10:16.269Z,990.79
2023-03-29T04:11:16.268Z,990.73
2023-03-29T04:12:16.270Z,990.72
2023-03-29T04:13:16.235Z,990.69
2023-03-29T04:14:16.229Z,990.66
2023-03-29T04:15:16.220Z,990.69
2023-03-29T04:16:16.342Z,990.65
2023-03-29T04:17:16.184Z,990.68
2023-03-29T04:18:16.330Z,990.67
2023-03-29T04:19:16.174Z,990.63
2023-03-29T04:20:16.242Z,990.60
2023-03-29T04:21:17.012Z,990.55
2023-03-29T04:22:16.190Z,990.57
2023-03-29T04:23:16.172Z,990.58
2023-03-29T04:24:16.156Z,990.54
2023-03-29T04:25:16.137Z,990.62
2023-03-29T04:26:16.158Z,990.58
2023-03-29T04:27:16.121Z,990.60
2023-03-29T04:28:16.105Z,990.56
2023-03-29T04:29:16.097Z,990.53
2023-03-29T04:30:16.092Z,990.56
2023-03-29T04:31:16.130Z,990.53
2023-03-29T04:32:16.049Z,990.50
2023-03-29T04:33:16.066Z,990.53
2023-03-29T04:34:16.043Z,990.49
2023-03-29T04:35:16.048Z,990.46
2023-03-29T04:36:16.155Z,990.46
2023-03-29T04:37:16.005Z,990.48
2023-03-29T04:38:16.007Z,990.52
2023-03-29T04:39:16.009Z,990.52
2023-03-29T04:40:16.003Z,990.53
2023-03-29T04:41:15.968Z,990.50
2023-03-29T04:42:15.967Z,990.55
2023-03-29T04:43:15.974Z,990.48
2023-03-29T04:44:16.030Z,990.47
2023-03-29T04:45:16.006Z,990.42
2023-03-29T04:46:16.126Z,990.44
2023-03-29T04:47:15.937Z,990.43
2023-03-29T04:48:16.009Z,990.38
2023-03-29T04:49:15.884Z,990.43
2023-03-29T04:50:15.952Z,990.44
2023-03-29T04:51:15.924Z,990.37
2023-03-29T04:52:15.873Z,990.46
2023-03-29T04:53:15.875Z,990.33
2023-03-29T04:54:15.970Z,990.31
2023-03-29T04:55:15.843Z,990.26
2023-03-29T04:56:15.827Z,990.24
2023-03-29T04:57:15.856Z,990.23
2023-03-29T04:58:15.845Z,990.23
2023-03-29T04:59:15.829Z,990.23
2023-03-29T05:00:15.943Z,990.23
2023-03-29T05:01:15.866Z,990.26
2023-03-29T05:02:15.795Z,990.20
2023-03-29T05:03:15.811Z,990.19
2023-03-29T05:04:15.814Z,990.23
2023-03-29T05:05:15.751Z,990.18
2023-03-29T05:06:15.724Z,990.20
2023-03-29T05:07:15.769Z,990.20
2023-03-29T05:08:15.709Z,990.18
2023-03-29T05:09:15.698Z,990.21
2023-03-29T05:10:15.683Z,990.16
2023-03-29T05:11:15.683Z,990.20
2023-03-29T05:12:15.677Z,990.19
2023-03-29T05:13:15.646Z,990.20
2023-03-29T05:14:15.670Z,990.17
2023-03-29T05:15:15.667Z,990.16
2023-03-29T05:16:15.694Z,990.11
2023-03-29T05:17:15.617Z,990.15
2023-03-29T05:18:15.668Z,990.19
2023-03-29T05:19:15.639Z,990.16
2023-03-29T05:20:15.624Z,990.11
2023-03-29T05:21:15.583Z,990.18
2023-03-29T05:22:15.587Z,990.13
2023-03-29T05:23:15.563Z,990.08
2023-03-29T05:24:15.556Z,990.13
2023-03-29T05:25:15.553Z,990.04
2023-03-29T05:26:15.567Z,990.04
2023-03-29T05:27:15.558Z,990.01
2023-03-29T05:28:15.702Z,990.09
2023-03-29T05:29:15.510Z,990.04
2023-03-29T05:30:15.526Z,989.99
2023-03-29T05:31:16.965Z,990.03
2023-03-29T05:32:16.503Z,990.05
2023-03-29T05:33:15.498Z,990.05
2023-03-29T05:34:15.459Z,990.00
2023-03-29T05:35:15.463Z,989.98
2023-03-29T05:36:15.607Z,989.95
2023-03-29T05:37:15.441Z,989.99
2023-03-29T05:38:15.450Z,989.93
2023-03-29T05:39:15.449Z,989.94
2023-03-29T05:40:15.428Z,989.97
2023-03-29T05:41:15.424Z,989.93
2023-03-29T05:42:15.488Z,989.93
2023-03-29T05:43:15.415Z,989.87
2023-03-29T05:44:15.354Z,989.89
2023-03-29T05:45:15.355Z,989.86
2023-03-29T05:46:15.982Z,989.94
2023-03-29T05:47:16.354Z,989.87
2023-03-29T05:48:15.348Z,989.86
2023-03-29T05:49:15.337Z,989.81
2023-03-29T05:50:15.299Z,989.86
2023-03-29T05:51:15.327Z,989.89
2023-03-29T05:52:15.295Z,989.81
2023-03-29T05:53:15.387Z,989.81
2023-03-29T05:54:15.270Z,989.83
2023-03-29T05:55:15.258Z,989.78
2023-03-29T05:56:15.246Z,989.85
2023-03-29T05:57:15.251Z,989.81
2023-03-29T05:58:15.230Z,989.80
2023-03-29T05:59:15.233Z,989.76
2023-03-29T06:00:15.256Z,989.77
2023-03-29T06:01:15.198Z,989.74
2023-03-29T06:02:15.240Z,989.75
2023-03-29T06:03:21.555Z,989.72
2023-03-29T06:04:17.248Z,989.73
2023-03-29T06:05:15.208Z,989.72
2023-03-29T06:06:15.154Z,989.67
2023-03-29T06:07:15.143Z,989.75
2023-03-29T06:08:15.105Z,989.71
2023-03-29T06:09:15.129Z,989.73
2023-03-29T06:10:15.137Z,989.73
2023-03-29T06:11:15.104Z,989.78
2023-03-29T06:12:15.155Z,989.73
2023-03-29T06:13:15.067Z,989.77
2023-03-29T06:14:15.070Z,989.75
2023-03-29T06:15:15.034Z,989.78
2023-03-29T06:16:15.053Z,989.82
2023-03-29T06:17:15.119Z,989.82
2023-03-29T06:18:15.029Z,989.83
2023-03-29T06:19:15.025Z,989.72
2023-03-29T06:20:15.060Z,989.78
2023-03-29T06:21:15.022Z,989.80
2023-03-29T06:22:15.068Z,989.77
2023-03-29T06:23:15.959Z,989.74
2023-03-29T06:24:15.002Z,989.77
2023-03-29T06:25:14.962Z,989.71
2023-03-29T06:26:14.927Z,989.68
2023-03-29T06:27:14.968Z,989.66
2023-03-29T06:28:14.939Z,989.64
2023-03-29T06:29:14.972Z,989.62
2023-03-29T06:30:14.937Z,989.67
2023-03-29T06:31:14.924Z,989.69
2023-03-29T06:32:14.895Z,989.70
2023-03-29T06:33:14.921Z,989.71
2023-03-29T06:34:14.889Z,989.70
2023-03-29T06:35:14.917Z,989.74
2023-03-29T06:36:14.869Z,989.78
2023-03-29T06:37:14.840Z,989.78
2023-03-29T06:38:14.861Z,989.78
2023-03-29T06:39:14.869Z,989.76
2023-03-29T06:40:14.824Z,989.78
2023-03-29T06:41:14.818Z,989.77
2023-03-29T06:42:21.254Z,989.79
2023-03-29T06:43:16.814Z,989.87
2023-03-29T06:44:14.826Z,989.75
2023-03-29T06:45:14.761Z,989.80
2023-03-29T06:46:15.096Z,989.77
2023-03-29T06:47:14.728Z,989.66
2023-03-29T06:48:14.759Z,989.76
2023-03-29T06:49:14.761Z,989.75
2023-03-29T06:50:14.757Z,989.76
2023-03-29T06:51:14.722Z,989.72
2023-03-29T06:52:14.687Z,989.74
2023-03-29T06:53:14.697Z,989.83
2023-03-29T06:54:14.684Z,989.75
2023-03-29T06:55:14.710Z,989.81
2023-03-29T06:56:14.715Z,989.86
2023-03-29T06:57:14.739Z,989.84
2023-03-29T06:58:14.666Z,989.93
2023-03-29T06:59:14.743Z,989.97
2023-03-29T07:00:14.628Z,989.94
2023-03-29T07:01:14.626Z,989.98
2023-03-29T07:02:14.672Z,990.01
2023-03-29T07:03:14.751Z,990.03
2023-03-29T07:04:14.610Z,990.02
2023-03-29T07:05:14.594Z,990.00
2023-03-29T07:06:14.561Z,990.01
2023-03-29T07:07:14.555Z,990.05
2023-03-29T07:08:14.552Z,990.09
2023-03-29T07:09:14.514Z,990.08
2023-03-29T07:10:14.526Z,990.12
2023-03-29T07:11:14.511Z,990.13
2023-03-29T07:12:14.506Z,990.14
2023-03-29T07:13:14.606Z,990.20
2023-03-29T07:14:14.489Z,990.08
2023-03-29T07:15:14.477Z,990.11
2023-03-29T07:16:14.558Z,990.18
2023-03-29T07:17:14.490Z,990.14
2023-03-29T07:18:14.516Z,990.13
2023-03-29T07:19:14.425Z,990.13
2023-03-29T07:20:14.448Z,990.11
2023-03-29T07:21:14.463Z,990.08
2023-03-29T07:22:14.407Z,990.04
2023-03-29T07:23:14.408Z,990.06
2023-03-29T07:24:14.418Z,990.09
2023-03-29T07:25:14.413Z,989.98
2023-03-29T07:26:14.367Z,990.10
2023-03-29T07:27:15.343Z,990.15
2023-03-29T07:28:14.345Z,990.09
2023-03-29T07:29:14.386Z,990.09
2023-03-29T07:30:14.323Z,990.01
2023-03-29T07:31:14.415Z,989.98
2023-03-29T07:32:14.341Z,989.98
2023-03-29T07:33:14.585Z,990.05
2023-03-29T07:34:14.284Z,990.04
2023-03-29T07:35:14.562Z,990.05
2023-03-29T07:36:14.293Z,990.06
2023-03-29T07:37:14.300Z,989.99
2023-03-29T07:38:14.249Z,990.01
2023-03-29T07:39:14.234Z,990.15
2023-03-29T07:40:14.239Z,990.03
2023-03-29T07:41:14.233Z,990.03
2023-03-29T07:42:14.202Z,990.02
2023-03-29T07:43:14.269Z,990.02
2023-03-29T07:44:14.199Z,989.98
2023-03-29T07:45:14.168Z,990.01
2023-03-29T07:46:14.278Z,990.07
2023-03-29T07:47:14.239Z,990.01
2023-03-29T07:48:14.236Z,990.03
2023-03-29T07:49:14.197Z,990.00
2023-03-29T07:50:14.105Z,990.04
2023-03-29T07:51:14.104Z,989.99
2023-03-29T07:52:14.169Z,989.94
2023-03-29T07:53:14.100Z,989.93
2023-03-29T07:54:14.105Z,989.96
2023-03-29T07:55:14.076Z,989.96
2023-03-29T07:56:14.087Z,989.93
2023-03-29T07:57:14.071Z,989.93
2023-03-29T07:58:14.075Z,989.87
2023-03-29T07:59:14.041Z,989.91
2023-03-29T08:00:14.185Z,989.87
2023-03-29T08:01:16.401Z,989.89
2023-03-29T08:02:14.977Z,989.84
2023-03-29T08:03:14.073Z,989.91
2023-03-29T08:04:14.095Z,989.94
2023-03-29T08:05:14.012Z,989.96
2023-03-29T08:06:13.978Z,989.90
2023-03-29T08:07:15.284Z,989.98
2023-03-29T08:08:13.976Z,989.98
2023-03-29T08:09:13.942Z,989.98
2023-03-29T08:10:45.848Z,989.94
2023-03-29T08:11:13.979Z,989.97
2023-03-29T08:12:14.024Z,989.95
2023-03-29T08:13:13.906Z,989.98
2023-03-29T08:14:13.949Z,989.96
2023-03-29T08:15:13.865Z,989.99
2023-03-29T08:16:13.891Z,990.00
2023-03-29T08:17:13.901Z,989.92
2023-03-29T08:18:13.889Z,989.88
2023-03-29T08:19:13.921Z,989.89
2023-03-29T08:20:13.838Z,989.82
2023-03-29T08:21:13.843Z,989.76
2023-03-29T08:22:13.804Z,989.82
2023-03-29T08:23:13.827Z,989.82
2023-03-29T08:24:13.788Z,989.73
2023-03-29T08:25:13.783Z,989.72
2023-03-29T08:26:13.781Z,989.73
2023-03-29T08:27:13.738Z,989.73
2023-03-29T08:28:13.764Z,989.74
2023-03-29T08:29:13.757Z,989.74
2023-03-29T08:30:13.731Z,989.74
2023-03-29T08:31:13.771Z,989.77
2023-03-29T08:32:13.810Z,989.75
2023-03-29T08:33:13.753Z,989.78
2023-03-29T08:34:13.789Z,989.79
2023-03-29T08:35:13.692Z,989.84
2023-03-29T08:36:13.745Z,989.83
2023-03-29T08:37:13.744Z,989.74
2023-03-29T08:38:13.662Z,989.80
2023-03-29T08:39:13.666Z,989.83
2023-03-29T08:40:13.649Z,989.86
2023-03-29T08:41:13.591Z,989.78
2023-03-29T08:42:13.621Z,989.82
2023-03-29T08:43:13.654Z,989.90
2023-03-29T08:44:13.650Z,989.88
2023-03-29T08:45:13.570Z,989.92
2023-03-29T08:46:13.580Z,989.86
2023-03-29T08:47:13.585Z,989.80
2023-03-29T08:48:13.606Z,989.74
2023-03-29T08:49:13.565Z,989.85
2023-03-29T08:50:13.551Z,989.86
2023-03-29T08:51:13.538Z,989.82
2023-03-29T08:52:13.615Z,989.85
2023-03-29T08:53:13.499Z,989.84
2023-03-29T08:54:13.474Z,989.74
2023-03-29T08:55:13.547Z,989.82
2023-03-29T08:56:13.488Z,989.73
2023-03-29T08:57:13.590Z,989.83
2023-03-29T08:58:13.503Z,989.80
2023-03-29T08:59:13.449Z,989.86
2023-03-29T09:00:13.419Z,989.83
2023-03-29T09:01:13.420Z,989.80
2023-03-29T09:02:13.503Z,989.80
2023-03-29T09:03:13.611Z,989.80
2023-03-29T09:04:13.501Z,989.88
2023-03-29T09:05:13.449Z,989.89
2023-03-29T09:06:13.372Z,989.85
2023-03-29T09:07:13.415Z,989.81
2023-03-29T09:08:13.358Z,989.88
2023-03-29T09:09:13.338Z,989.89
2023-03-29T09:10:13.345Z,989.88
2023-03-29T09:11:13.346Z,989.84
2023-03-29T09:12:13.297Z,989.91
2023-03-29T09:13:14.414Z,989.88
2023-03-29T09:14:13.340Z,989.86
2023-03-29T09:15:13.297Z,989.86
2023-03-29T09:16:13.404Z,989.83
2023-03-29T09:17:13.267Z,989.86
2023-03-29T09:18:13.363Z,989.78
2023-03-29T09:19:13.254Z,989.80
2023-03-29T09:20:13.221Z,989.87
2023-03-29T09:21:13.244Z,989.80
2023-03-29T09:22:13.277Z,989.89
2023-03-29T09:23:13.212Z,989.87
2023-03-29T09:24:13.176Z,989.96
2023-03-29T09:25:13.180Z,989.86
2023-03-29T09:26:13.277Z,989.91
2023-03-29T09:27:13.162Z,989.83
2023-03-29T09:28:13.167Z,989.92
2023-03-29T09:29:13.191Z,989.80
2023-03-29T09:30:13.188Z,989.83
2023-03-29T09:31:13.208Z,989.80
2023-03-29T09:32:13.164Z,989.80
2023-03-29T09:33:13.155Z,989.81
2023-03-29T09:34:14.437Z,989.75
2023-03-29T09:35:13.088Z,989.71
2023-03-29T09:36:13.166Z,989.70
2023-03-29T09:37:13.111Z,989.72
2023-03-29T09:38:13.066Z,989.64
2023-03-29T09:39:13.043Z,989.67
2023-03-29T09:40:13.035Z,989.69
2023-03-29T09:41:13.015Z,989.69
2023-03-29T09:42:12.999Z,989.64
2023-03-29T09:43:13.051Z,989.72
2023-03-29T09:44:24.230Z,989.75
2023-03-29T09:45:15.030Z,989.75
2023-03-29T09:46:13.058Z,989.76
2023-03-29T09:47:13.009Z,989.76
2023-03-29T09:48:13.001Z,989.68
2023-03-29T09:49:14.031Z,989.72
2023-03-29T09:50:23.473Z,989.74
2023-03-29T09:51:13.922Z,989.72
2023-03-29T09:52:12.973Z,989.77
2023-03-29T09:53:12.951Z,989.74
2023-03-29T09:54:12.895Z,989.75
2023-03-29T09:55:12.898Z,989.82
2023-03-29T09:56:12.926Z,989.80
2023-03-29T09:57:12.895Z,989.72
2023-03-29T09:58:12.847Z,989.85
2023-03-29T09:59:12.893Z,989.81
2023-03-29T10:00:12.843Z,989.83
2023-03-29T10:01:12.862Z,989.70
2023-03-29T10:02:12.838Z,989.73
2023-03-29T10:03:12.850Z,989.73
2023-03-29T10:04:12.810Z,989.63
2023-03-29T10:05:12.823Z,989.69
2023-03-29T10:06:12.788Z,989.68
2023-03-29T10:07:12.773Z,989.66
2023-03-29T10:08:12.772Z,989.64
2023-03-29T10:09:12.740Z,989.63
2023-03-29T10:10:12.746Z,989.61
2023-03-29T10:11:12.736Z,989.62
2023-03-29T10:12:12.732Z,989.61
2023-03-29T10:13:12.711Z,989.62
2023-03-29T10:14:12.731Z,989.63
2023-03-29T10:15:23.237Z,989.58
2023-03-29T10:16:14.769Z,989.59
2023-03-29T10:17:12.696Z,989.55
2023-03-29T10:18:12.700Z,989.56
2023-03-29T10:19:12.658Z,989.56
2023-03-29T10:20:12.661Z,989.51
2023-03-29T10:21:12.671Z,989.52
2023-03-29T10:22:12.664Z,989.56
2023-03-29T10:23:12.636Z,989.52
2023-03-29T10:24:12.639Z,989.51
2023-03-29T10:25:12.580Z,989.53
2023-03-29T10:26:12.607Z,989.54
2023-03-29T10:27:12.588Z,989.56
2023-03-29T10:28:12.554Z,989.57
2023-03-29T10:29:12.601Z,989.51
2023-03-29T10:30:12.555Z,989.55
2023-03-29T10:31:12.558Z,989.56
2023-03-29T10:32:12.603Z,989.60
2023-03-29T10:33:12.573Z,989.57
2023-03-29T10:34:12.484Z,989.59
2023-03-29T10:35:12.519Z,989.57
2023-03-29T10:36:12.510Z,989.58
2023-03-29T10:37:12.562Z,989.60
2023-03-29T10:38:12.482Z,989.55
2023-03-29T10:39:12.484Z,989.61
2023-03-29T10:40:12.456Z,989.58
2023-03-29T10:41:12.478Z,989.55
2023-03-29T10:42:12.449Z,989.52
2023-03-29T10:43:12.521Z,989.53
2023-03-29T10:44:12.415Z,989.48
2023-03-29T10:45:12.393Z,989.46
2023-03-29T10:46:12.406Z,989.53
2023-03-29T10:47:12.424Z,989.52
2023-03-29T10:48:12.368Z,989.52
2023-03-29T10:49:12.420Z,989.50
2023-03-29T10:50:12.347Z,989.52
2023-03-29T10:51:12.355Z,989.53
2023-03-29T10:52:12.340Z,989.51
2023-03-29T10:53:12.410Z,989.51
2023-03-29T10:54:12.344Z,989.50
2023-03-29T10:55:12.316Z,989.45
2023-03-29T10:56:12.435Z,989.46
2023-03-29T10:57:12.330Z,989.48
2023-03-29T10:58:12.269Z,989.47
2023-03-29T10:59:12.245Z,989.45
2023-03-29T11:00:12.340Z,989.44
2023-03-29T11:01:12.246Z,989.45
2023-03-29T11:02:12.271Z,989.52
2023-03-29T11:03:14.340Z,989.49
2023-03-29T11:04:12.211Z,989.44
2023-03-29T11:05:12.200Z,989.42
2023-03-29T11:06:12.208Z,989.35
2023-03-29T11:07:12.183Z,989.29
2023-03-29T11:08:12.150Z,989.29
2023-03-29T11:09:12.184Z,989.30
2023-03-29T11:10:12.211Z,989.29
2023-03-29T11:11:13.174Z,989.31
2023-03-29T11:12:16.170Z,989.30
2023-03-29T11:13:13.104Z,989.41
2023-03-29T11:14:12.113Z,989.37
2023-03-29T11:15:12.147Z,989.29
2023-03-29T11:16:12.146Z,989.33
2023-03-29T11:17:12.057Z,989.30
2023-03-29T11:18:12.129Z,989.26
2023-03-29T11:19:12.080Z,989.23
2023-03-29T11:20:12.125Z,989.18
2023-03-29T11:21:12.055Z,989.25
2023-03-29T11:22:12.062Z,989.28
2023-03-29T11:23:12.032Z,989.26
2023-03-29T11:24:12.008Z,989.21
2023-03-29T11:25:12.043Z,989.22
2023-03-29T11:26:11.991Z,989.24
2023-03-29T11:27:12.000Z,989.19
2023-03-29T11:28:12.005Z,989.12
2023-03-29T11:29:11.956Z,989.14
2023-03-29T11:30:12.065Z,989.22
2023-03-29T11:31:12.075Z,989.13
2023-03-29T11:32:11.936Z,989.15
2023-03-29T11:33:11.918Z,989.15
2023-03-29T11:34:11.981Z,989.20
2023-03-29T11:35:11.919Z,989.22
2023-03-29T11:36:11.938Z,989.20
2023-03-29T11:37:11.879Z,989.16
2023-03-29T11:38:11.852Z,989.14
2023-03-29T11:39:11.988Z,989.19
2023-03-29T11:40:12.074Z,989.17
2023-03-29T11:41:11.847Z,989.14
2023-03-29T11:42:11.839Z,989.18
2023-03-29T11:43:11.884Z,989.13
2023-03-29T11:44:11.808Z,989.10
2023-03-29T11:45:11.906Z,989.13
2023-03-29T11:46:11.804Z,989.08
2023-03-29T11:47:11.814Z,989.12
2023-03-29T11:48:11.843Z,989.08
2023-03-29T11:49:11.775Z,989.04
2023-03-29T11:50:11.767Z,989.08
2023-03-29T11:51:11.777Z,989.13
2023-03-29T11:52:11.765Z,989.10
2023-03-29T11:53:11.767Z,989.10
2023-03-29T11:54:11.698Z,989.12
2023-03-29T11:55:11.729Z,989.12
2023-03-29T11:56:11.706Z,989.10
2023-03-29T11:57:11.741Z,989.17
2023-03-29T11:58:11.703Z,989.08
2023-03-29T11:59:11.734Z,989.06
2023-03-29T12:00:11.698Z,989.02
2023-03-29T12:01:11.676Z,989.07
2023-03-29T12:02:11.678Z,989.07
2023-03-29T12:03:11.694Z,989.08
2023-03-29T12:04:11.714Z,989.00
2023-03-29T12:05:11.678Z,989.03
2023-03-29T12:06:11.678Z,988.97
2023-03-29T12:07:11.601Z,988.94
2023-03-29T12:08:11.587Z,989.02
2023-03-29T12:09:14.238Z,989.04
2023-03-29T12:10:11.607Z,988.99
2023-03-29T12:11:11.542Z,988.84
2023-03-29T12:12:11.598Z,988.83
2023-03-29T12:13:11.526Z,988.87
2023-03-29T12:14:11.597Z,988.84
2023-03-29T12:15:11.550Z,988.84
2023-03-29T12:16:11.562Z,988.81
2023-03-29T12:17:11.550Z,988.73
2023-03-29T12:18:11.543Z,988.74
2023-03-29T12:19:11.506Z,988.69
2023-03-29T12:20:11.546Z,988.68
2023-03-29T12:21:11.485Z,988.70
2023-03-29T12:22:11.486Z,988.69
2023-03-29T12:23:11.499Z,988.68
2023-03-29T12:24:11.450Z,988.60
2023-03-29T12:25:11.485Z,988.68
2023-03-29T12:26:11.407Z,988.74
2023-03-29T12:27:11.414Z,988.70
2023-03-29T12:28:11.396Z,988.74